Time;durP1;ratioP1;P1;durP2;ratioP2;P2;SDS_P1;SDS_P2;PMS_P1;PMS_P2;Temp;Humidity;BMP_temperature;BMP_pressure;BME280_temperature;BME280_humidity;BME280_pressure;Samples;Min_cycle;Max_cycle;Signal;HPM_P1;HPM_P2
2021/05/05 00:02:25;;;;;;;2.92;1.67;;;;;;;13.01;45.35;97882.32;4488472;78;21574;-88
2021/05/05 00:08:27;;;;;;;2.72;1.77;;;;;;;12.97;45.09;97872.73;4494410;78;22394;-87
2021/05/05 00:14:28;;;;;;;3.47;1.60;;;;;;;12.93;45.45;97859.66;4488982;78;21139;-87
2021/05/05 00:20:30;;;;;;;2.87;1.65;;;;;;;12.93;45.57;97858.87;4381350;80;21299;-87
2021/05/05 00:26:32;;;;;;;4.92;1.80;;;;;;;12.89;45.98;97852.06;4337911;80;21169;-88
2021/05/05 00:32:33;;;;;;;4.80;2.20;;;;;;;12.89;45.98;97856.17;4357064;80;21163;-87
2021/05/05 00:38:35;;;;;;;3.95;1.82;;;;;;;12.82;46.21;97850.03;4354269;80;21170;-88
2021/05/05 00:44:37;;;;;;;4.95;1.67;;;;;;;12.77;46.58;97851.28;4353412;80;21155;-87
2021/05/05 00:50:38;;;;;;;4.55;2.52;;;;;;;12.72;47.03;97851.74;4357145;80;21107;-87
2021/05/05 00:56:40;;;;;;;6.75;2.37;;;;;;;12.67;47.53;97861.06;4348715;80;21791;-88
2021/05/05 01:02:42;;;;;;;4.28;2.27;;;;;;;12.72;47.63;97854.48;4353176;80;21336;-87
2021/05/05 01:08:46;;;;;;;2.90;1.87;;;;;;;12.87;47.69;97844.86;4347256;80;21115;-87
2021/05/05 01:14:49;;;;;;;3.62;2.12;;;;;;;13.03;48.14;97841.48;4351366;80;21664;-83
2021/05/05 01:21:00;;;;;;;5.67;2.10;;;;;;;13.20;48.24;97839.02;4348786;80;21170;-83
2021/05/05 01:27:06;;;;;;;3.65;1.80;;;;;;;13.41;48.45;97822.91;4348169;80;21611;-83
2021/05/05 01:33:09;;;;;;;1.82;1.42;;;;;;;13.59;48.28;97816.47;4353516;80;21143;-83
2021/05/05 01:39:17;;;;;;;4.35;1.57;;;;;;;13.65;48.20;97809.89;4345993;80;21184;-82
2021/05/05 01:45:20;;;;;;;3.50;1.55;;;;;;;13.65;48.03;97802.42;4350552;80;21654;-83
2021/05/05 01:51:21;;;;;;;2.52;1.60;;;;;;;13.66;48.04;97803.18;4353928;80;21194;-83
2021/05/05 01:57:36;;;;;;;4.50;1.75;;;;;;;13.65;48.06;97799.67;4321133;81;21160;-82
2021/05/05 02:03:39;;;;;;;5.15;2.20;;;;;;;13.69;47.84;97797.61;4334740;80;21528;-83
2021/05/05 02:09:42;;;;;;;4.35;1.80;;;;;;;13.70;47.78;97801.16;4331523;80;21316;-83
2021/05/05 02:15:44;;;;;;;4.08;1.85;;;;;;;13.63;47.90;97798.53;4342328;80;21155;-83
2021/05/05 02:21:47;;;;;;;4.55;1.92;;;;;;;13.60;47.97;97789.75;4351854;81;21173;-83
2021/05/05 02:27:50;;;;;;;6.20;1.82;;;;;;;13.53;47.95;97784.41;4354710;81;21171;-82
2021/05/05 02:33:54;;;;;;;3.58;2.12;;;;;;;13.48;48.05;97783.52;4353418;81;21408;-82
2021/05/05 02:39:56;;;;;;;3.00;1.62;;;;;;;13.42;48.23;97775.59;4351078;80;21185;-83
2021/05/05 02:45:59;;;;;;;5.70;2.37;;;;;;;13.37;48.32;97765.88;4351476;80;21281;-82
2021/05/05 02:52:02;;;;;;;4.55;1.60;;;;;;;13.35;48.31;97761.98;4347110;80;21181;-83
2021/05/05 02:58:04;;;;;;;5.22;1.98;;;;;;;13.42;48.35;97759.10;4354464;80;21189;-83
2021/05/05 03:04:06;;;;;;;5.00;1.75;;;;;;;13.37;48.37;97748.59;4350835;81;21541;-83
2021/05/05 03:10:10;;;;;;;2.70;2.10;;;;;;;13.50;48.33;97748.91;4348167;81;21276;-83
2021/05/05 03:16:12;;;;;;;3.50;1.57;;;;;;;13.55;48.26;97748.41;4369934;80;21166;-83
2021/05/05 03:22:13;;;;;;;5.78;1.62;;;;;;;13.63;48.12;97750.41;4374944;80;21578;-83
2021/05/05 03:28:14;;;;;;;2.17;1.70;;;;;;;13.73;47.62;97743.92;4377410;80;21635;-83
2021/05/05 03:34:16;;;;;;;4.55;1.80;;;;;;;13.73;47.65;97743.30;4373135;81;21143;-82
2021/05/05 03:40:18;;;;;;;3.67;1.75;;;;;;;13.71;47.76;97738.06;4373674;80;21178;-83
2021/05/05 03:46:19;;;;;;;5.67;2.83;;;;;;;13.71;47.49;97732.56;4372388;80;21142;-83
2021/05/05 03:52:21;;;;;;;2.98;2.00;;;;;;;13.71;47.63;97733.34;4370450;80;21174;-82
2021/05/05 03:58:23;;;;;;;2.62;1.60;;;;;;;13.79;47.28;97732.59;4369498;80;21335;-83
2021/05/05 04:04:25;;;;;;;3.67;1.95;;;;;;;13.82;47.61;97740.77;4369287;81;21292;-83
2021/05/05 04:10:26;;;;;;;3.58;1.65;;;;;;;13.81;47.54;97734.33;4366542;80;21342;-83
2021/05/05 04:16:28;;;;;;;3.33;1.87;;;;;;;13.86;47.72;97746.17;4393980;79;21157;-82
2021/05/05 04:22:29;;;;;;;2.55;1.62;;;;;;;13.89;47.62;97739.84;4388448;81;21255;-83
2021/05/05 04:28:32;;;;;;;3.05;1.67;;;;;;;13.89;47.92;97744.73;4396733;79;21534;-82
2021/05/05 04:34:33;;;;;;;2.25;1.55;;;;;;;13.91;47.93;97745.09;4395793;80;21196;-82
2021/05/05 04:40:35;;;;;;;5.67;2.00;;;;;;;13.86;48.50;97752.46;4396907;80;21194;-83
2021/05/05 04:46:37;;;;;;;3.45;1.90;;;;;;;13.89;48.58;97750.23;4392132;79;21123;-82
2021/05/05 04:52:38;;;;;;;2.72;1.57;;;;;;;13.90;48.59;97750.42;4394121;80;21613;-82
2021/05/05 04:58:40;;;;;;;4.85;2.20;;;;;;;13.89;48.83;97748.86;4386249;80;21174;-83
2021/05/05 05:04:43;;;;;;;3.75;2.40;;;;;;;13.99;48.67;97751.98;4302185;81;21566;-82
2021/05/05 05:10:45;;;;;;;6.45;2.47;;;;;;;14.07;48.72;97756.73;4390521;79;21168;-83
2021/05/05 05:16:46;;;;;;;5.70;2.40;;;;;;;14.23;48.65;97753.22;4385514;80;21284;-83
2021/05/05 05:22:48;;;;;;;5.67;2.35;;;;;;;14.35;49.10;97758.86;4396029;79;21160;-83
2021/05/05 05:28:49;;;;;;;5.58;2.20;;;;;;;14.42;49.36;97765.59;4389991;80;21283;-83
2021/05/05 05:34:51;;;;;;;5.30;2.90;;;;;;;14.49;49.63;97772.28;4396312;80;22112;-83
2021/05/05 05:40:52;;;;;;;6.12;2.77;;;;;;;14.56;49.27;97775.48;4397614;79;21141;-83
2021/05/05 05:46:54;;;;;;;15.10;7.15;;;;;;;14.67;49.02;97774.62;4395314;79;21142;-83
2021/05/05 05:52:55;;;;;;;12.55;7.53;;;;;;;14.70;48.85;97773.76;4378183;80;21174;-82
2021/05/05 05:59:18;;;;;;;8.63;3.80;;;;;;;14.80;48.34;97781.00;4386581;79;21158;-83
2021/05/05 06:05:20;;;;;;;5.62;2.98;;;;;;;14.93;47.57;97782.61;4382238;81;21295;-83
2021/05/05 06:11:22;;;;;;;4.65;2.85;;;;;;;15.06;48.04;97781.30;4374786;80;21335;-83
2021/05/05 06:17:24;;;;;;;7.42;2.20;;;;;;;15.23;48.39;97773.17;4351559;81;21149;-83
2021/05/05 06:23:26;;;;;;;8.60;2.87;;;;;;;15.58;47.04;97769.48;4353040;80;21154;-83
2021/05/05 06:29:28;;;;;;;3.85;2.10;;;;;;;16.01;46.59;97764.86;4351418;80;21104;-83
2021/05/05 06:35:29;;;;;;;2.45;1.95;;;;;;;16.45;46.15;97763.31;4350038;80;21158;-83
2021/05/05 06:41:31;;;;;;;4.37;2.60;;;;;;;16.60;44.47;97749.83;4349999;81;22296;-83
2021/05/05 06:47:33;;;;;;;4.08;2.10;;;;;;;16.57;44.11;97741.05;4343215;80;21153;-83
2021/05/05 06:53:34;;;;;;;5.92;2.40;;;;;;;16.89;44.03;97726.94;4353484;80;21145;-83
2021/05/05 06:59:36;;;;;;;3.50;1.95;;;;;;;17.53;42.59;97722.10;4348977;80;21606;-83
2021/05/05 07:05:37;;;;;;;6.05;1.85;;;;;;;17.66;40.44;97715.89;4345672;81;21170;-83
2021/05/05 07:11:39;;;;;;;5.25;2.22;;;;;;;17.55;40.97;97696.75;4360901;81;21233;-83
2021/05/05 07:17:40;;;;;;;3.37;2.00;;;;;;;17.60;42.73;97690.03;4386648;80;21633;-83
2021/05/05 07:23:43;;;;;;;4.20;2.40;;;;;;;17.93;40.68;97692.50;4389932;80;21604;-83
2021/05/05 07:29:45;;;;;;;6.60;1.50;;;;;;;18.33;41.47;97684.19;4386220;80;21663;-83
2021/05/05 07:42:25;;;;;;;3.25;1.50;;;;;;;18.79;38.67;97674.00;4399985;79;28487;-83
2021/05/05 07:54:25;;;;;;;2.20;1.45;;;;;;;18.94;37.00;97670.16;4590429;76;22955;-83
2021/05/05 08:00:27;;;;;;;4.03;1.50;;;;;;;18.98;39.33;97656.15;4488226;78;21297;-83
2021/05/05 08:06:29;;;;;;;2.50;1.40;;;;;;;19.09;38.90;97652.30;4488550;78;21164;-83
2021/05/05 08:12:30;;;;;;;2.87;1.62;;;;;;;19.12;36.54;97647.95;4485013;78;21354;-83
2021/05/05 08:18:31;;;;;;;3.08;1.47;;;;;;;18.97;37.02;97638.73;4484566;78;21612;-83
2021/05/05 08:24:33;;;;;;;7.25;1.62;;;;;;;19.06;36.71;97633.81;4491582;78;21339;-83
2021/05/05 08:30:34;;;;;;;3.30;1.60;;;;;;;19.29;37.26;97629.81;4331665;78;21561;-83
2021/05/05 08:36:36;;;;;;;3.20;1.35;;;;;;;19.40;37.61;97625.16;4123471;85;21811;-83
2021/05/05 08:42:40;;;;;;;4.30;1.35;;;;;;;19.66;38.78;97615.20;4121812;85;21313;-83
2021/05/05 08:48:42;;;;;;;3.77;1.72;;;;;;;20.05;37.80;97606.56;4123537;85;21235;-84
2021/05/05 08:54:43;;;;;;;5.65;1.80;;;;;;;19.86;35.47;97603.72;4108559;85;21677;-83
2021/05/05 09:00:45;;;;;;;3.77;1.47;;;;;;;19.63;35.62;97588.38;4106034;85;21220;-83
2021/05/05 09:06:54;;;;;;;5.28;1.87;;;;;;;19.38;36.21;97584.61;4105257;85;21219;-84
2021/05/05 09:12:56;;;;;;;4.90;1.90;;;;;;;19.31;36.58;97583.56;4105560;85;21631;-84
2021/05/05 09:19:06;;;;;;;4.12;1.95;;;;;;;19.71;36.78;97583.42;4105602;85;21862;-83
2021/05/05 09:25:12;;;;;;;3.10;1.98;;;;;;;20.01;35.93;97564.28;4106369;85;21331;-81
2021/05/05 09:31:14;;;;;;;5.37;2.10;;;;;;;20.64;36.32;97558.94;4106842;85;21760;-82
2021/05/05 09:37:16;;;;;;;3.55;1.98;;;;;;;21.57;33.66;97543.20;4105086;85;21205;-81
2021/05/05 09:43:18;;;;;;;3.70;1.80;;;;;;;21.68;32.75;97530.06;4105596;85;21184;-82
2021/05/05 09:49:41;;;;;;;2.65;1.70;;;;;;;22.54;33.93;97520.50;4105519;84;21385;-82
2021/05/05 09:56:00;;;;;;;4.83;1.42;;;;;;;22.99;32.54;97506.53;4125277;85;21200;-82
2021/05/05 10:02:02;;;;;;;3.15;1.90;;;;;;;23.13;30.78;97504.25;4123759;85;21208;-82
2021/05/05 10:08:08;;;;;;;2.00;1.40;;;;;;;23.00;28.94;97497.55;4123137;85;21231;-82
2021/05/05 10:14:13;;;;;;;2.70;1.60;;;;;;;22.03;30.44;97487.68;4123262;85;21220;-82
2021/05/05 10:20:25;;;;;;;2.58;1.22;;;;;;;21.73;31.02;97482.81;4059303;86;21623;-82
2021/05/05 10:26:28;;;;;;;4.37;1.60;;;;;;;21.53;31.26;97479.97;3986155;88;21715;-82
2021/05/05 10:32:32;;;;;;;3.40;1.67;;;;;;;21.41;31.14;97474.09;4105063;85;21173;-82
2021/05/05 10:38:35;;;;;;;6.92;1.60;;;;;;;21.71;32.36;97480.36;4103391;85;21189;-82
2021/05/05 10:44:46;;;;;;;1.80;1.35;;;;;;;22.36;32.58;97465.02;4105345;85;21184;-86
2021/05/05 10:50:58;;;;;;;4.17;1.35;;;;;;;22.55;31.22;97459.31;4090500;85;21176;-85
2021/05/05 10:57:12;;;;;;;1.82;1.42;;;;;;;22.89;32.38;97456.98;4047970;86;21218;-82
2021/05/05 11:03:45;;;;;;;3.92;1.32;;;;;;;23.08;30.93;97447.75;4052837;86;21330;-82
2021/05/05 11:09:47;;;;;;;7.40;1.80;;;;;;;22.86;30.70;97449.59;4055120;86;21769;-82
2021/05/05 11:15:53;;;;;;;3.47;1.60;;;;;;;22.87;30.14;97428.17;4061931;87;21345;-84
2021/05/05 11:21:55;;;;;;;3.55;1.25;;;;;;;22.36;30.41;97437.14;4051807;87;21190;-84
2021/05/05 11:27:59;;;;;;;7.60;1.32;;;;;;;22.43;32.07;97432.52;4050101;86;21940;-84
2021/05/05 11:34:02;;;;;;;3.30;1.37;;;;;;;22.13;32.09;97429.79;4055197;86;21536;-84
2021/05/05 11:40:06;;;;;;;4.75;1.32;;;;;;;21.82;32.87;97428.23;4049303;87;21239;-84
2021/05/05 11:46:08;;;;;;;4.90;1.62;;;;;;;21.36;33.63;97448.98;4054254;87;21224;-84
2021/05/05 11:52:27;;;;;;;11.50;2.08;;;;;;;21.20;33.67;97467.56;4078621;85;21172;-84
2021/05/05 11:58:30;;;;;;;8.63;2.12;;;;;;;20.88;34.01;97459.55;4104553;85;21188;-84
2021/05/05 12:04:42;;;;;;;6.90;2.10;;;;;;;20.50;35.43;97451.27;4106733;85;21645;-83
2021/05/05 12:10:52;;;;;;;6.62;1.62;;;;;;;20.30;35.90;97451.14;4106391;85;21251;-83
2021/05/05 12:16:56;;;;;;;2.15;1.37;;;;;;;20.21;36.31;97441.50;4106007;85;21272;-84
2021/05/05 12:23:00;;;;;;;2.77;1.67;;;;;;;19.97;36.63;97457.38;4103760;85;21223;-84
2021/05/05 12:29:06;;;;;;;8.20;2.85;;;;;;;19.73;37.70;97474.05;4105641;85;21398;-84
2021/05/05 12:35:10;;;;;;;6.58;3.52;;;;;;;19.35;38.81;97517.56;4103354;85;21197;-83
2021/05/05 12:41:17;;;;;;;10.63;4.58;;;;;;;18.60;41.38;97512.47;4105935;85;21228;-84
2021/05/05 12:47:22;;;;;;;7.83;4.05;;;;;;;18.17;42.78;97545.36;4106666;85;21193;-83
2021/05/05 12:53:25;;;;;;;18.05;6.25;;;;;;;17.86;44.24;97586.81;4105144;85;21827;-83
2021/05/05 12:59:34;;;;;;;15.48;5.90;;;;;;;17.35;46.61;97647.88;4106410;85;21184;-84
2021/05/05 13:06:05;;;;;;;13.48;5.35;;;;;;;16.87;51.41;97669.34;4106812;85;22418;-83
2021/05/05 13:12:29;;;;;;;16.45;6.80;;;;;;;16.15;49.39;97725.18;4106151;85;21514;-83
2021/05/05 13:18:36;;;;;;;10.80;4.33;;;;;;;15.40;49.90;97768.59;4104949;85;21211;-84
2021/05/05 13:30:53;;;;;;;6.62;3.12;;;;;;;13.91;52.65;97848.25;4104520;85;21691;-83
2021/05/05 13:37:02;;;;;;;5.65;2.90;;;;;;;13.39;54.14;97837.67;4103380;85;21219;-84
2021/05/05 13:49:43;;;;;;;5.55;3.37;;;;;;;13.10;56.45;97833.89;4452037;78;22919;-84
2021/05/05 13:55:41;;;;;;;5.47;3.08;;;;;;;13.09;56.53;97829.57;4381345;80;21436;-83
2021/05/05 14:01:42;;;;;;;4.65;3.42;;;;;;;13.35;57.30;97842.47;4384372;80;21134;-83
2021/05/05 14:07:44;;;;;;;6.58;3.95;;;;;;;13.36;57.41;97852.88;4385094;79;21161;-83
2021/05/05 14:13:45;;;;;;;12.40;5.92;;;;;;;13.21;57.68;97840.56;4388996;79;21252;-80
2021/05/05 14:19:47;;;;;;;10.80;5.22;;;;;;;12.65;59.15;97840.27;4393336;80;21142;-80
2021/05/05 14:25:49;;;;;;;8.35;5.42;;;;;;;12.50;59.93;97829.34;4384992;80;22057;-81
2021/05/05 14:31:51;;;;;;;6.75;3.92;;;;;;;12.47;60.47;97837.62;4391414;79;21338;-81
2021/05/05 14:37:59;;;;;;;8.05;3.70;;;;;;;12.17;62.72;97845.88;4405947;80;21432;-83
2021/05/05 14:44:03;;;;;;;7.33;3.80;;;;;;;12.05;62.45;97834.88;4394960;80;21189;-83
2021/05/05 14:50:03;;;;;;;6.87;4.13;;;;;;;12.14;62.41;97837.89;4405774;79;21335;-83
2021/05/05 15:03:04;;;;;;;8.08;4.78;;;;;;;11.92;64.59;97842.09;4426648;77;25291;-83
2021/05/05 15:15:40;;;;;;;9.80;5.22;;;;;;;12.07;64.96;97822.91;4349079;79;21190;-83
2021/05/05 15:46:36;;;;;;;10.63;5.25;;;;;;;11.49;67.09;97809.51;4274626;82;21197;-83
2021/05/05 15:52:40;;;;;;;12.37;6.63;;;;;;;11.44;67.68;97811.32;4316145;80;21147;-83
2021/05/05 15:58:42;;;;;;;11.65;5.40;;;;;;;11.35;68.80;97809.66;4220602;80;9999710;-83
2021/05/05 16:05:00;;;;;;;5.00;2.40;;;;;;;11.02;70.31;97800.81;4285915;81;21885;-83
2021/05/05 16:17:08;;;;;;;4.87;2.58;;;;;;;10.84;70.89;97783.75;4253170;82;21250;-83
2021/05/05 16:23:35;;;;;;;5.03;3.10;;;;;;;10.73;73.57;97768.02;4254903;82;21144;-83
2021/05/05 16:54:34;;;;;;;8.80;4.57;;;;;;;10.16;74.52;97748.56;4385367;78;28277;-83
2021/05/05 17:00:48;;;;;;;7.15;3.70;;;;;;;10.31;73.92;97780.67;4377281;79;21243;-83
2021/05/05 17:06:58;;;;;;;7.45;4.08;;;;;;;10.44;73.21;97772.19;4383074;79;21209;-83
2021/05/05 17:13:01;;;;;;;8.83;4.58;;;;;;;10.45;73.31;97807.93;4385737;79;21190;-83
2021/05/05 17:25:32;;;;;;;12.82;6.12;;;;;;;10.38;73.23;97823.04;4387358;79;21141;-83
2021/05/05 18:15:41;;;;;;;12.03;6.35;;;;;;;9.58;75.17;97863.82;4505730;77;21722;-85
2021/05/05 18:28:13;;;;;;;17.05;6.53;;;;;;;9.32;75.44;97886.31;4575399;76;23049;-85
2021/05/05 18:34:08;;;;;;;13.62;6.37;;;;;;;9.15;75.81;97906.81;4494383;77;22242;-85
2021/05/05 18:40:16;;;;;;;9.80;4.80;;;;;;;9.21;75.67;97926.52;4506252;77;21139;-84
2021/05/05 19:49:46;;;;;;;5.05;2.62;;;;;;;9.26;72.60;97993.03;4492432;77;21604;-83
2021/05/05 19:56:49;;;;;;;4.90;1.70;;;;;;;9.21;72.90;98037.09;4491270;77;21721;-83
2021/05/05 20:20:22;;;;;;;3.80;1.20;;;;;;;8.26;74.01;98048.30;4497721;77;21162;-85
2021/05/05 22:57:29;;;;;;;12.70;6.50;;;;;;;6.49;78.02;98193.17;4330529;81;21245;-85
2021/05/05 23:16:26;;;;;;;8.85;3.50;;;;;;;6.71;77.58;98215.44;4337512;81;21217;-85
2021/05/05 23:53:43;;;;;;;3.72;1.70;;;;;;;6.21;75.73;98257.41;4388557;79;21626;-85
